Time;durP1;ratioP1;P1;durP2;ratioP2;P2;SDS_P1;SDS_P2;PMS_P1;PMS_P2;Temp;Humidity;BMP_temperature;BMP_pressure;BME280_temperature;BME280_humidity;BME280_pressure;Samples;Min_cycle;Max_cycle;Signal;HPM_P1;HPM_P2
2022/06/12 00:01:14;;;;;;;1999.90;999.90;;;13.50;99.90;;;;;;5032438;28;20041;-87
2022/06/12 00:03:42;;;;;;;1999.90;999.90;;;13.50;99.90;;;;;;5017807;28;20029;-88
2022/06/12 00:06:08;;;;;;;1999.90;999.90;;;13.40;99.90;;;;;;5042775;28;20036;-88
2022/06/12 00:08:37;;;;;;;1999.90;999.90;;;13.40;99.90;;;;;;5044156;28;20036;-88
2022/06/12 00:11:06;;;;;;;1999.90;999.90;;;13.50;99.90;;;;;;5040362;28;20037;-88
2022/06/12 00:13:47;;;;;;;1999.90;999.90;;;13.40;99.90;;;;;;5041683;28;20739;-88
2022/06/12 00:16:13;;;;;;;1999.90;999.90;;;13.30;99.90;;;;;;5035548;28;20505;-89
2022/06/12 00:18:40;;;;;;;1999.90;999.90;;;13.30;99.90;;;;;;5036719;28;20038;-89
2022/06/12 00:21:10;;;;;;;1999.90;999.90;;;13.40;99.90;;;;;;5031055;28;20037;-88
2022/06/12 00:23:58;;;;;;;1999.90;999.90;;;13.30;99.90;;;;;;5018732;28;20056;-88
2022/06/12 00:26:30;;;;;;;1999.90;999.90;;;13.30;99.90;;;;;;5011237;28;20041;-90
2022/06/12 00:29:03;;;;;;;1999.90;999.90;;;13.20;99.90;;;;;;5025487;28;20042;-89
2022/06/12 00:31:29;;;;;;;1999.90;999.90;;;13.20;99.90;;;;;;5024615;28;20060;-88
2022/06/12 00:33:55;;;;;;;1999.90;999.90;;;13.10;99.90;;;;;;5036518;28;20404;-88
2022/06/12 00:36:21;;;;;;;1999.90;999.90;;;13.00;99.90;;;;;;5040492;28;20029;-88
2022/06/12 00:38:47;;;;;;;1999.90;999.90;;;12.90;99.90;;;;;;5039956;28;20424;-89
2022/06/12 00:41:13;;;;;;;1999.90;999.90;;;12.90;99.90;;;;;;5036129;28;20715;-89
2022/06/12 00:43:38;;;;;;;1999.90;999.90;;;12.90;99.90;;;;;;5020458;28;20040;-88
2022/06/12 00:46:05;;;;;;;1999.90;999.90;;;12.90;99.90;;;;;;5037682;28;20409;-88
2022/06/12 00:48:37;;;;;;;1999.90;999.90;;;12.90;99.90;;;;;;5037100;28;20033;-88
2022/06/12 00:51:06;;;;;;;1999.90;999.90;;;12.90;99.90;;;;;;5029216;28;20038;-88
2022/06/12 00:53:43;;;;;;;1999.90;999.90;;;12.80;99.90;;;;;;5033753;28;20029;-88
2022/06/12 00:56:17;;;;;;;1999.90;999.90;;;12.80;99.90;;;;;;5031803;28;20064;-88
2022/06/12 00:58:52;;;;;;;1999.90;999.90;;;12.80;99.90;;;;;;5030426;28;20036;-89
2022/06/12 01:01:29;;;;;;;1999.90;999.90;;;12.80;99.90;;;;;;5026768;28;20045;-88
2022/06/12 01:06:39;;;;;;;1999.90;999.90;;;12.80;99.90;;;;;;5039092;28;20044;-88
2022/06/12 01:09:17;;;;;;;1999.90;999.90;;;12.80;99.90;;;;;;5041121;28;20037;-89
2022/06/12 01:11:47;;;;;;;1999.90;999.90;;;12.70;99.90;;;;;;5036667;28;20033;-88
2022/06/12 01:14:16;;;;;;;1999.90;999.90;;;12.70;99.90;;;;;;5039666;28;20033;-88
2022/06/12 01:16:48;;;;;;;1999.90;999.90;;;12.70;99.90;;;;;;5035871;28;20021;-87
2022/06/12 01:19:49;;;;;;;1999.90;999.90;;;12.70;99.90;;;;;;5034527;28;20399;-90
2022/06/12 01:22:35;;;;;;;1999.90;999.90;;;12.50;99.90;;;;;;5028383;28;20037;-88
2022/06/12 01:25:34;;;;;;;1999.90;999.90;;;12.50;99.90;;;;;;5031276;28;20516;-89
2022/06/12 01:28:25;;;;;;;1999.90;999.90;;;12.40;99.90;;;;;;5029901;28;20034;-89
2022/06/12 01:31:06;;;;;;;1999.90;999.90;;;12.50;99.90;;;;;;5046835;28;20484;-88
2022/06/12 01:33:39;;;;;;;;;;;12.50;99.90;;;;;;5028388;28;20483;-89
2022/06/12 01:36:33;;;;;;;1999.90;999.90;;;12.50;99.90;;;;;;5043927;28;19908;-89
2022/06/12 01:39:11;;;;;;;1999.90;999.90;;;12.40;99.90;;;;;;5028592;28;20059;-90
2022/06/12 01:42:05;;;;;;;1999.90;999.90;;;12.30;99.90;;;;;;5039317;28;20049;-89
2022/06/12 01:44:44;;;;;;;1999.90;999.90;;;12.30;99.90;;;;;;5036642;28;20025;-88
2022/06/12 01:47:26;;;;;;;1999.90;999.90;;;12.30;99.90;;;;;;5062573;28;20034;-89
2022/06/12 01:50:12;;;;;;;1999.90;999.90;;;12.20;99.90;;;;;;5064045;28;20062;-89
2022/06/12 01:53:11;;;;;;;1999.90;999.90;;;12.00;99.90;;;;;;5065392;28;20119;-89
2022/06/12 01:56:09;;;;;;;1999.90;999.90;;;12.00;99.90;;;;;;5031151;28;20128;-88
2022/06/12 01:58:45;;;;;;;1999.90;999.90;;;12.00;99.90;;;;;;5006135;28;20040;-87
2022/06/12 02:01:15;;;;;;;1999.90;999.90;;;12.00;99.90;;;;;;5020815;28;20048;-89
2022/06/12 02:03:50;;;;;;;1999.90;999.90;;;11.90;99.90;;;;;;5034799;28;20026;-89
2022/06/12 02:06:26;;;;;;;1999.90;999.90;;;11.80;99.90;;;;;;5042953;28;20098;-88
2022/06/12 02:08:59;;;;;;;1999.90;999.90;;;11.80;99.90;;;;;;5040450;28;20128;-88
2022/06/12 02:14:19;;;;;;;1999.90;999.90;;;11.80;99.90;;;;;;5034077;28;20035;-88
2022/06/12 02:16:52;;;;;;;1999.90;999.90;;;11.90;99.90;;;;;;5033204;28;20124;-88
2022/06/12 02:19:23;;;;;;;1999.90;999.90;;;11.90;99.90;;;;;;5033858;28;20036;-88
2022/06/12 02:22:17;;;;;;;1999.90;999.90;;;11.90;99.90;;;;;;5030106;28;20108;-88
2022/06/12 02:24:49;;;;;;;1999.90;999.90;;;11.80;99.90;;;;;;5030329;28;20408;-88
2022/06/12 02:27:23;;;;;;;1999.90;999.90;;;11.80;99.90;;;;;;5025451;28;20040;-89
2022/06/12 02:29:57;;;;;;;1999.90;999.90;;;11.70;99.90;;;;;;5026852;28;20029;-89
2022/06/12 02:32:58;;;;;;;1999.90;999.90;;;11.60;99.90;;;;;;5026026;28;20216;-89
2022/06/12 02:35:52;;;;;;;1999.90;999.90;;;11.50;99.90;;;;;;5014505;28;20033;-89
2022/06/12 02:38:37;;;;;;;1999.90;999.90;;;11.50;99.90;;;;;;5031564;28;20054;-89
2022/06/12 02:41:29;;;;;;;1999.90;999.90;;;11.30;99.90;;;;;;5035292;28;20030;-89
2022/06/12 02:44:01;;;;;;;1999.90;999.90;;;11.30;99.90;;;;;;5028232;28;20049;-88
2022/06/12 02:47:01;;;;;;;1999.90;999.90;;;11.30;99.90;;;;;;5037126;28;20110;-89
2022/06/12 02:49:27;;;;;;;1999.90;999.90;;;11.40;99.90;;;;;;5021817;28;20037;-88
2022/06/12 02:52:23;;;;;;;1999.90;999.90;;;11.40;99.90;;;;;;5038019;28;20031;-90
2022/06/12 02:54:54;;;;;;;1999.90;999.90;;;11.40;99.90;;;;;;5035424;28;20112;-86
2022/06/12 02:57:26;;;;;;;1999.90;999.90;;;11.40;99.90;;;;;;5035061;28;20079;-86
2022/06/12 02:59:54;;;;;;;1999.90;999.90;;;11.30;99.90;;;;;;5029433;28;20037;-87
2022/06/12 03:02:40;;;;;;;1999.90;999.90;;;11.40;99.90;;;;;;5040292;28;20755;-88
2022/06/12 03:05:29;;;;;;;1999.90;999.90;;;11.30;99.90;;;;;;5025980;28;20057;-87
2022/06/12 03:08:09;;;;;;;1999.90;999.90;;;11.30;99.90;;;;;;5039869;28;20428;-88
2022/06/12 03:10:38;;;;;;;1999.90;999.90;;;11.30;99.90;;;;;;5036647;28;20025;-88
2022/06/12 03:13:07;;;;;;;1999.90;999.90;;;11.20;99.90;;;;;;5034706;28;20292;-88
2022/06/12 03:15:45;;;;;;;1999.90;999.90;;;11.20;99.90;;;;;;5037604;28;20117;-88
2022/06/12 03:18:15;;;;;;;1999.90;999.90;;;11.20;99.90;;;;;;5037438;28;20048;-87
2022/06/12 03:21:16;;;;;;;1999.90;999.90;;;11.20;99.90;;;;;;5032390;28;20050;-87
2022/06/12 03:23:50;;;;;;;1999.90;999.90;;;11.20;99.90;;;;;;5007395;28;20084;-87
2022/06/12 03:26:34;;;;;;;1999.90;999.90;;;11.20;99.90;;;;;;5063387;28;20116;-87
2022/06/12 03:29:06;;;;;;;1999.90;999.90;;;11.20;99.90;;;;;;5028749;28;20033;-87
2022/06/12 03:31:45;;;;;;;1999.90;999.90;;;11.20;99.90;;;;;;5025422;28;20512;-87
2022/06/12 03:34:39;;;;;;;1999.90;999.90;;;11.20;99.90;;;;;;5040943;28;20556;-89
2022/06/12 03:37:21;;;;;;;1999.90;999.90;;;11.20;99.90;;;;;;5042111;28;20036;-87
2022/06/12 03:40:03;;;;;;;1999.90;999.90;;;11.20;99.90;;;;;;5042919;28;20021;-88
2022/06/12 03:43:00;;;;;;;1999.90;999.90;;;11.30;99.90;;;;;;5036517;28;20056;-88
2022/06/12 03:45:33;;;;;;;1999.90;999.90;;;11.40;99.90;;;;;;5035548;28;20029;-87
2022/06/12 03:47:58;;;;;;;1999.90;999.90;;;11.40;99.90;;;;;;5036945;28;20037;-88
2022/06/12 03:50:30;;;;;;;1999.90;999.90;;;11.60;99.90;;;;;;5036020;28;20033;-88
2022/06/12 03:53:18;;;;;;;1999.90;999.90;;;11.60;99.90;;;;;;5032824;28;20166;-87
2022/06/12 03:59:20;;;;;;;1999.90;999.90;;;11.70;99.90;;;;;;5032824;28;20033;-87
2022/06/12 04:01:46;;;;;;;1999.90;999.90;;;11.70;99.90;;;;;;5031665;28;20045;-88
2022/06/12 04:04:15;;;;;;;1999.90;999.90;;;11.80;99.90;;;;;;5041771;28;20025;-87
2022/06/12 04:06:44;;;;;;;1999.90;999.90;;;11.90;99.90;;;;;;5041685;28;20048;-88
2022/06/12 04:09:23;;;;;;;1999.90;999.90;;;12.10;99.90;;;;;;5043065;28;20044;-88
2022/06/12 04:11:57;;;;;;;1999.90;999.90;;;12.20;99.90;;;;;;5034930;28;20025;-88
2022/06/12 04:14:30;;;;;;;1999.90;999.90;;;12.20;99.90;;;;;;5032004;28;20562;-87
2022/06/12 04:17:00;;;;;;;1999.90;999.90;;;12.20;99.90;;;;;;5029974;28;20025;-88
2022/06/12 04:19:29;;;;;;;1999.90;999.90;;;12.30;99.90;;;;;;5032350;28;20733;-88
2022/06/12 04:21:54;;;;;;;1999.90;999.90;;;12.40;99.90;;;;;;5032878;28;20039;-87
2022/06/12 04:24:50;;;;;;;1999.90;999.90;;;12.50;99.90;;;;;;5028476;28;20033;-87
2022/06/12 04:27:28;;;;;;;1999.90;999.90;;;12.50;99.90;;;;;;5029601;28;20040;-87
2022/06/12 04:30:04;;;;;;;1999.90;999.90;;;12.60;99.90;;;;;;5029339;28;20638;-86
2022/06/12 04:32:31;;;;;;;1999.90;999.90;;;12.70;99.90;;;;;;5033192;28;20045;-86
2022/06/12 04:34:57;;;;;;;1999.90;999.90;;;12.80;99.90;;;;;;5041017;28;20329;-86
2022/06/12 04:37:26;;;;;;;1999.90;999.90;;;12.80;99.90;;;;;;5041206;28;20028;-87
2022/06/12 04:39:52;;;;;;;1999.90;999.90;;;13.00;99.90;;;;;;5035982;28;20021;-88
2022/06/12 04:42:21;;;;;;;1999.90;999.90;;;13.10;99.90;;;;;;5038135;28;20036;-87
2022/06/12 04:44:48;;;;;;;1999.90;999.90;;;13.20;99.90;;;;;;5037733;28;20025;-87
2022/06/12 04:47:18;;;;;;;1999.90;999.90;;;13.30;99.90;;;;;;5036798;28;20029;-87
2022/06/12 04:49:44;;;;;;;1999.90;999.90;;;13.40;99.90;;;;;;5035364;28;20026;-88
2022/06/12 04:52:12;;;;;;;1999.90;999.90;;;13.60;99.90;;;;;;5033177;28;20105;-87
2022/06/12 04:54:41;;;;;;;1999.90;999.90;;;13.60;99.90;;;;;;5032860;28;20111;-87
2022/06/12 04:57:08;;;;;;;1999.90;999.90;;;13.70;99.90;;;;;;5032877;28;20038;-87
2022/06/12 04:59:35;;;;;;;1999.90;999.90;;;13.90;99.90;;;;;;5026734;28;20033;-87
2022/06/12 05:02:01;;;;;;;1999.90;999.90;;;14.00;99.90;;;;;;5034356;28;20133;-87
2022/06/12 05:04:28;;;;;;;1999.90;999.90;;;14.00;99.90;;;;;;5039494;28;20043;-87
2022/06/12 05:06:54;;;;;;;1999.90;999.90;;;14.20;99.90;;;;;;5028882;28;20246;-85
2022/06/12 05:09:23;;;;;;;1999.90;999.90;;;14.30;99.90;;;;;;5041685;28;20025;-86
2022/06/12 05:11:49;;;;;;;1999.90;999.90;;;14.40;99.90;;;;;;5040900;28;20399;-87
2022/06/12 05:14:15;;;;;;;1999.90;999.90;;;14.50;99.90;;;;;;5035732;28;20034;-87
2022/06/12 05:16:49;;;;;;;1999.90;999.90;;;14.50;99.90;;;;;;5017562;28;20029;-87
2022/06/12 05:19:19;;;;;;;1999.90;999.90;;;14.80;99.90;;;;;;5033347;28;20033;-88
2022/06/12 05:21:45;;;;;;;1999.90;999.90;;;14.90;99.90;;;;;;5029185;28;20410;-87
2022/06/12 05:24:12;;;;;;;1999.90;999.90;;;15.10;99.90;;;;;;5032097;28;20029;-87
2022/06/12 05:26:40;;;;;;;1999.90;999.90;;;15.30;99.90;;;;;;5024633;28;20088;-86
2022/06/12 05:29:10;;;;;;;1999.90;999.90;;;15.50;99.90;;;;;;5028823;28;20025;-87
2022/06/12 05:31:36;;;;;;;1999.90;999.90;;;15.60;99.90;;;;;;5030517;28;20254;-87
2022/06/12 05:34:02;;;;;;;1999.90;999.90;;;15.70;99.90;;;;;;5042267;28;20435;-87
2022/06/12 05:36:28;;;;;;;1999.90;999.90;;;15.80;99.90;;;;;;5038647;28;20025;-87
2022/06/12 05:38:54;;;;;;;1999.90;999.90;;;16.00;99.90;;;;;;5038966;28;20040;-87
2022/06/12 05:41:20;;;;;;;1999.90;999.90;;;16.10;99.90;;;;;;5040086;28;20388;-87
2022/06/12 05:43:46;;;;;;;1999.90;999.90;;;16.20;99.90;;;;;;5034301;28;20029;-87
2022/06/12 05:46:14;;;;;;;1999.90;999.90;;;16.30;99.90;;;;;;5034767;28;20159;-88
2022/06/12 05:48:41;;;;;;;1999.90;999.90;;;16.40;99.90;;;;;;5034602;28;20116;-87
2022/06/12 05:51:07;;;;;;;1999.90;999.90;;;16.50;99.90;;;;;;5029923;28;20463;-86
2022/06/12 05:53:36;;;;;;;1999.90;999.90;;;16.60;99.90;;;;;;5027325;28;20433;-87
2022/06/12 05:56:05;;;;;;;1999.90;999.90;;;16.70;99.90;;;;;;5028279;28;20471;-88
2022/06/12 05:58:31;;;;;;;1999.90;999.90;;;16.80;99.90;;;;;;5028359;28;20189;-87
2022/06/12 06:00:57;;;;;;;1999.90;999.90;;;16.90;98.10;;;;;;5029044;28;20108;-87
2022/06/12 06:03:22;;;;;;;1999.90;999.90;;;17.00;99.90;;;;;;5040072;28;20499;-88
2022/06/12 06:05:49;;;;;;;1999.90;999.90;;;17.10;99.90;;;;;;5037248;28;20472;-88
2022/06/12 06:08:16;;;;;;;1999.90;999.90;;;17.20;99.90;;;;;;5040192;28;20044;-89
2022/06/12 06:10:43;;;;;;;1999.90;999.90;;;17.30;94.50;;;;;;5039557;28;20072;-87
2022/06/12 06:13:10;;;;;;;1999.90;999.90;;;17.50;94.40;;;;;;5039181;28;20030;-88
2022/06/12 06:15:37;;;;;;;1999.90;999.90;;;17.60;98.50;;;;;;5032172;28;20032;-87
2022/06/12 06:18:04;;;;;;;1999.90;999.90;;;17.70;93.30;;;;;;5034129;28;20033;-88
2022/06/12 06:20:33;;;;;;;1999.90;999.90;;;17.80;94.90;;;;;;5032724;28;20064;-87
2022/06/12 06:22:59;;;;;;;1999.90;999.90;;;17.90;92.10;;;;;;5030706;28;20107;-87
2022/06/12 06:25:28;;;;;;;1999.90;999.90;;;17.90;90.80;;;;;;5040209;28;20037;-87
2022/06/12 06:27:55;;;;;;;1999.90;999.90;;;18.00;93.30;;;;;;5026928;28;20095;-87
2022/06/12 06:30:22;;;;;;;1999.90;999.90;;;18.10;92.60;;;;;;5025358;28;20083;-87
2022/06/12 06:32:48;;;;;;;1999.90;999.90;;;18.20;94.00;;;;;;5041985;28;20149;-87
2022/06/12 06:35:14;;;;;;;1999.90;999.90;;;18.30;94.70;;;;;;5039942;28;20099;-87
2022/06/12 06:37:40;;;;;;;1999.90;999.90;;;18.40;91.30;;;;;;5037170;28;20456;-88
2022/06/12 06:40:08;;;;;;;1999.90;999.90;;;18.50;82.70;;;;;;5041152;28;20052;-88
2022/06/12 06:42:35;;;;;;;1999.90;999.90;;;18.60;81.20;;;;;;5019414;28;20095;-88
2022/06/12 06:47:45;;;;;;;1999.90;999.90;;;18.90;90.40;;;;;;5034749;28;20056;-88
2022/06/12 06:50:13;;;;;;;1999.90;999.90;;;18.90;86.80;;;;;;5031516;28;20037;-88
2022/06/12 06:52:39;;;;;;;1999.90;999.90;;;19.00;86.00;;;;;;5031814;28;20139;-89
2022/06/12 06:55:06;;;;;;;1999.90;999.90;;;19.10;87.30;;;;;;5024461;28;20168;-88
2022/06/12 06:57:36;;;;;;;1999.90;999.90;;;19.20;83.00;;;;;;5009988;28;20037;-88
2022/06/12 07:00:04;;;;;;;1999.90;999.90;;;19.30;75.30;;;;;;5019344;28;20046;-88
2022/06/12 07:02:29;;;;;;;1999.90;999.90;;;19.30;72.50;;;;;;5026194;28;20041;-88
2022/06/12 07:04:55;;;;;;;1999.90;999.90;;;19.40;72.70;;;;;;5037649;28;20258;-88
2022/06/12 07:07:20;;;;;;;1999.90;999.90;;;19.50;72.90;;;;;;5036355;28;20033;-88
2022/06/12 07:09:46;;;;;;;1999.90;999.90;;;19.70;78.40;;;;;;5031223;28;20037;-88
2022/06/12 07:12:12;;;;;;;1999.90;999.90;;;19.80;76.30;;;;;;5037134;28;20033;-88
2022/06/12 07:14:37;;;;;;;1999.90;999.90;;;19.80;73.50;;;;;;5032258;28;20030;-88
2022/06/12 07:17:04;;;;;;;1999.90;999.90;;;20.00;77.20;;;;;;5034150;28;20519;-88
2022/06/12 07:19:29;;;;;;;1999.90;999.90;;;20.10;70.20;;;;;;5044217;28;20079;-88
2022/06/12 07:21:55;;;;;;;1999.90;999.90;;;20.20;71.90;;;;;;5029306;28;20029;-88
2022/06/12 07:24:21;;;;;;;1999.90;999.90;;;20.20;70.20;;;;;;5030400;28;20477;-87
2022/06/12 07:26:48;;;;;;;1999.90;999.90;;;20.40;67.30;;;;;;5024959;28;20041;-88
2022/06/12 07:29:16;;;;;;;1999.90;999.90;;;20.50;68.50;;;;;;5025113;28;20056;-88
2022/06/12 07:31:42;;;;;;;1999.90;999.90;;;20.60;76.40;;;;;;5033745;28;20510;-88
2022/06/12 07:34:08;;;;;;;1999.90;999.90;;;20.70;70.20;;;;;;5045226;28;20091;-88
2022/06/12 07:36:36;;;;;;;1999.90;999.90;;;20.70;62.70;;;;;;5042807;28;20025;-88
2022/06/12 07:39:05;;;;;;;1999.90;999.90;;;20.90;68.30;;;;;;5042794;28;20044;-88
2022/06/12 07:41:31;;;;;;;1999.90;999.90;;;21.10;62.50;;;;;;5037688;28;20037;-87
2022/06/12 07:43:57;;;;;;;1999.90;999.90;;;21.20;61.50;;;;;;5040678;28;20037;-88
2022/06/12 07:46:22;;;;;;;1999.90;999.90;;;21.20;60.30;;;;;;5033704;28;20099;-87
2022/06/12 07:48:48;;;;;;;1999.90;999.90;;;21.40;62.30;;;;;;5034103;28;20108;-88
2022/06/12 07:51:19;;;;;;;1999.90;999.90;;;21.50;64.70;;;;;;5031154;28;20485;-88
2022/06/12 07:53:45;;;;;;;1999.90;999.90;;;21.60;64.10;;;;;;5017966;28;20033;-88
2022/06/12 07:56:12;;;;;;;1999.90;999.90;;;21.70;57.80;;;;;;5031234;28;20083;-87
2022/06/12 07:58:38;;;;;;;1999.90;999.90;;;21.70;60.00;;;;;;5029305;28;20022;-87
2022/06/12 08:01:06;;;;;;;1999.90;999.90;;;21.70;53.50;;;;;;5030389;28;20152;-88
2022/06/12 08:03:33;;;;;;;1999.90;999.90;;;21.80;55.20;;;;;;5041120;28;20056;-88
2022/06/12 08:05:59;;;;;;;1999.90;999.90;;;22.00;51.90;;;;;;5041340;28;20480;-88
2022/06/12 08:08:26;;;;;;;1999.90;999.90;;;22.00;54.40;;;;;;5044252;28;20025;-88
2022/06/12 08:10:51;;;;;;;1999.90;999.90;;;22.20;53.10;;;;;;5037086;28;20029;-88
2022/06/12 08:13:17;;;;;;;1999.90;999.90;;;22.20;60.40;;;;;;5036043;28;20554;-88
2022/06/12 08:15:45;;;;;;;1999.90;999.90;;;22.30;64.90;;;;;;5037519;28;20017;-88
2022/06/12 08:18:12;;;;;;;1999.90;999.90;;;22.50;51.20;;;;;;5034911;28;20163;-87
2022/06/12 08:20:45;;;;;;;1999.90;999.90;;;22.60;51.90;;;;;;5031956;28;20128;-88
2022/06/12 08:23:27;;;;;;;1999.90;999.90;;;22.80;49.30;;;;;;5031974;28;20045;-87
2022/06/12 08:26:12;;;;;;;1999.90;999.90;;;22.80;49.70;;;;;;5030606;28;20496;-88
2022/06/12 08:28:44;;;;;;;1999.90;999.90;;;22.90;51.10;;;;;;5027813;28;20026;-88
2022/06/12 08:31:13;;;;;;;1999.90;999.90;;;23.10;53.50;;;;;;5031799;28;20037;-88
2022/06/12 08:33:41;;;;;;;1999.90;999.90;;;23.20;48.50;;;;;;5037133;28;20037;-87
2022/06/12 08:36:10;;;;;;;1999.90;999.90;;;23.30;48.60;;;;;;5038249;28;20163;-88
2022/06/12 08:38:36;;;;;;;1999.90;999.90;;;23.50;48.50;;;;;;5040730;28;20099;-88
2022/06/12 08:41:25;;;;;;;1999.90;999.90;;;23.50;51.40;;;;;;5039639;28;20051;-87
2022/06/12 08:44:03;;;;;;;1999.90;999.90;;;23.60;45.50;;;;;;5053710;28;20038;-88
2022/06/12 08:46:45;;;;;;;1999.90;999.90;;;23.70;47.10;;;;;;5031529;28;20033;-87
2022/06/12 08:49:45;;;;;;;1999.90;999.90;;;23.90;48.20;;;;;;5046769;28;20033;-88
2022/06/12 08:52:20;;;;;;;;;;;24.30;47.00;;;;;;5031822;28;20080;-88
2022/06/12 08:55:08;;;;;;;1999.90;999.90;;;24.20;45.50;;;;;;5031873;28;19913;-87
2022/06/12 08:57:43;;;;;;;1999.90;999.90;;;24.20;43.20;;;;;;5026791;28;20127;-88
2022/06/12 09:00:24;;;;;;;1999.90;999.90;;;24.60;45.20;;;;;;5035334;28;20037;-88
2022/06/12 09:02:50;;;;;;;1999.90;999.90;;;24.60;42.20;;;;;;5038785;28;20265;-88
2022/06/12 09:05:21;;;;;;;1999.90;999.90;;;24.70;48.00;;;;;;5042393;28;20038;-88
2022/06/12 09:07:49;;;;;;;;;;;25.10;46.50;;;;;;5042621;28;20025;-87
2022/06/12 09:10:29;;;;;;;1999.90;999.90;;;25.30;43.40;;;;;;5033166;28;19913;-88
2022/06/12 09:13:07;;;;;;;1999.90;999.90;;;25.50;43.90;;;;;;5036824;28;20036;-87
2022/06/12 09:15:38;;;;;;;1999.90;999.90;;;25.60;42.00;;;;;;5066197;28;20508;-87
2022/06/12 09:18:15;;;;;;;1999.90;999.90;;;25.50;40.40;;;;;;5031902;28;20033;-91
2022/06/12 09:21:17;;;;;;;1999.90;999.90;;;25.50;39.90;;;;;;5031758;28;20060;-88
2022/06/12 09:24:05;;;;;;;1999.90;999.90;;;25.80;38.90;;;;;;5024204;28;20124;-88
2022/06/12 09:26:43;;;;;;;1999.90;999.90;;;25.60;40.30;;;;;;5028357;28;20092;-88
2022/06/12 09:29:42;;;;;;;1999.90;999.90;;;25.50;38.60;;;;;;5024242;28;20031;-88
2022/06/12 09:32:13;;;;;;;1999.90;999.90;;;26.00;40.30;;;;;;5025211;28;20069;-88
2022/06/12 09:34:55;;;;;;;1999.90;999.90;;;26.30;45.40;;;;;;5040369;28;20021;-87
2022/06/12 09:40:40;;;;;;;1999.90;999.90;;;26.60;39.20;;;;;;5021988;28;20036;-87
2022/06/12 09:43:09;;;;;;;1999.90;999.90;;;26.30;40.10;;;;;;5034169;28;20025;-87
2022/06/12 09:46:02;;;;;;;1999.90;999.90;;;26.50;44.50;;;;;;5032971;28;20033;-88
2022/06/12 09:48:27;;;;;;;1999.90;999.90;;;26.60;37.20;;;;;;5013938;28;20117;-88
2022/06/12 09:51:09;;;;;;;1999.90;999.90;;;26.30;36.80;;;;;;5032889;28;20101;-88
2022/06/12 09:53:52;;;;;;;1999.90;999.90;;;26.20;42.90;;;;;;5027042;28;20021;-88
2022/06/12 09:56:38;;;;;;;1999.90;999.90;;;26.30;38.80;;;;;;5025388;28;20025;-88
2022/06/12 09:59:19;;;;;;;1999.90;999.90;;;26.90;35.70;;;;;;5020398;28;20112;-88
2022/06/12 10:01:47;;;;;;;1999.90;999.90;;;27.20;37.90;;;;;;5044850;28;20066;-88
2022/06/12 10:04:23;;;;;;;1999.90;999.90;;;27.20;40.90;;;;;;5031297;28;20037;-88
2022/06/12 10:06:58;;;;;;;1999.90;999.90;;;27.20;35.60;;;;;;5031449;28;20029;-88
2022/06/12 10:09:30;;;;;;;1999.90;999.90;;;27.10;34.30;;;;;;5031370;28;20040;-88
2022/06/12 10:12:10;;;;;;;1999.90;999.90;;;26.90;37.20;;;;;;5036116;28;20037;-88
2022/06/12 10:14:44;;;;;;;1999.90;999.90;;;27.20;34.70;;;;;;5033803;28;20040;-88
2022/06/12 10:17:56;;;;;;;1999.90;999.90;;;27.50;34.60;;;;;;5029574;28;20400;-88
2022/06/12 10:20:24;;;;;;;1999.90;999.90;;;27.50;34.40;;;;;;5030723;28;20025;-89
2022/06/12 10:22:52;;;;;;;1999.90;999.90;;;27.70;36.30;;;;;;5031042;28;20446;-87
2022/06/12 10:25:24;;;;;;;1999.90;999.90;;;28.00;33.50;;;;;;5029534;28;20129;-88
2022/06/12 10:28:01;;;;;;;1999.90;999.90;;;27.90;33.60;;;;;;5028302;28;20097;-88
2022/06/12 10:30:40;;;;;;;1999.90;999.90;;;28.20;36.40;;;;;;5037471;28;20563;-88
2022/06/12 10:33:20;;;;;;;1999.90;999.90;;;28.00;32.50;;;;;;5035580;28;20120;-88
2022/06/12 10:35:47;;;;;;;;;;;27.90;30.90;;;;;;5042702;28;20029;-88
2022/06/12 10:38:13;;;;;;;1999.90;999.90;;;28.20;37.90;;;;;;5037256;28;19917;-87
2022/06/12 10:40:47;;;;;;;1999.90;999.90;;;28.30;32.90;;;;;;5035593;28;20116;-88
2022/06/12 10:43:26;;;;;;;1999.90;999.90;;;27.80;37.60;;;;;;5036876;28;20064;-88
2022/06/12 10:46:00;;;;;;;1999.90;999.90;;;28.30;29.90;;;;;;5034458;28;20034;-88
2022/06/12 10:48:30;;;;;;;1999.90;999.90;;;28.40;31.90;;;;;;5030380;28;20483;-88
2022/06/12 10:50:59;;;;;;;;;;;28.50;29.60;;;;;;5031767;28;20080;-88
2022/06/12 10:53:28;;;;;;;1999.90;999.90;;;28.40;33.60;;;;;;5030134;28;19919;-88
2022/06/12 10:56:41;;;;;;;1999.90;999.90;;;29.40;29.80;;;;;;5029013;28;20043;-88
2022/06/12 10:59:21;;;;;;;1999.90;999.90;;;29.50;29.80;;;;;;4982520;28;20435;-88
2022/06/12 11:02:24;;;;;;;1999.90;999.90;;;30.00;26.80;;;;;;4998697;28;20064;-87
2022/06/12 11:05:12;;;;;;;1999.90;999.90;;;30.30;26.60;;;;;;5033071;28;20041;-88
2022/06/12 11:07:45;;;;;;;1999.90;999.90;;;29.90;28.20;;;;;;5042474;28;20036;-88
2022/06/12 11:10:28;;;;;;;1999.90;999.90;;;30.80;29.10;;;;;;5042323;28;20036;-88
2022/06/12 11:12:57;;;;;;;1999.90;999.90;;;30.90;25.90;;;;;;5040537;28;20029;-88
2022/06/12 11:15:50;;;;;;;1999.90;999.90;;;30.90;24.30;;;;;;5040123;28;20151;-88
2022/06/12 11:19:00;;;;;;;1999.90;999.90;;;31.20;25.50;;;;;;5029740;28;20036;-88
2022/06/12 11:21:46;;;;;;;1999.90;999.90;;;32.10;24.00;;;;;;5015099;28;20626;-87
2022/06/12 11:24:20;;;;;;;1999.90;999.90;;;32.70;24.30;;;;;;5065789;28;20037;-88
2022/06/12 11:26:49;;;;;;;1999.90;999.90;;;32.70;25.70;;;;;;5017975;28;20417;-88
2022/06/12 11:29:36;;;;;;;1999.90;999.90;;;32.20;24.20;;;;;;5033797;28;20041;-88
2022/06/12 11:32:06;;;;;;;1999.90;999.90;;;32.10;21.90;;;;;;5036632;28;20590;-88
2022/06/12 11:34:56;;;;;;;1999.90;999.90;;;31.90;24.90;;;;;;5038879;28;20449;-88
2022/06/12 11:37:50;;;;;;;1999.90;999.90;;;32.30;21.80;;;;;;5033339;28;20025;-88
2022/06/12 11:40:53;;;;;;;1999.90;999.90;;;32.20;21.30;;;;;;5010624;28;20038;-88
2022/06/12 11:43:35;;;;;;;1999.90;999.90;;;32.00;25.00;;;;;;5028536;28;20523;-87
2022/06/12 11:46:27;;;;;;;1999.90;999.90;;;31.20;24.90;;;;;;5023319;28;20066;-88
2022/06/12 11:49:04;;;;;;;1999.90;999.90;;;31.80;24.10;;;;;;5019612;28;20129;-88
2022/06/12 11:51:46;;;;;;;1999.90;999.90;;;33.40;25.30;;;;;;5019821;28;20028;-88
2022/06/12 11:54:27;;;;;;;1999.90;999.90;;;33.20;25.00;;;;;;5025922;28;20493;-87
2022/06/12 11:57:11;;;;;;;1999.90;999.90;;;32.40;25.40;;;;;;5032743;28;20029;-88
2022/06/12 12:00:15;;;;;;;1999.90;999.90;;;33.40;24.20;;;;;;5027657;28;20079;-87
2022/06/12 12:03:08;;;;;;;1999.90;999.90;;;33.50;24.50;;;;;;5002967;28;20037;-88
2022/06/12 12:05:49;;;;;;;1999.90;999.90;;;33.70;24.10;;;;;;5036569;28;20033;-87
2022/06/12 12:08:35;;;;;;;1999.90;999.90;;;33.30;24.80;;;;;;5034837;28;20031;-88
2022/06/12 12:11:11;;;;;;;1999.90;999.90;;;33.80;21.40;;;;;;5039673;28;20032;-88
2022/06/12 12:13:47;;;;;;;1999.90;999.90;;;34.40;23.90;;;;;;5033678;28;20083;-87
2022/06/12 12:16:21;;;;;;;1999.90;999.90;;;34.60;21.30;;;;;;5035046;28;20026;-88
2022/06/12 12:18:54;;;;;;;1999.90;999.90;;;34.10;18.50;;;;;;5033225;28;20025;-88
2022/06/12 12:21:30;;;;;;;1999.90;999.90;;;34.90;18.90;;;;;;5031097;28;20408;-87
2022/06/12 12:23:57;;;;;;;1999.90;999.90;;;34.40;17.80;;;;;;5030300;28;20040;-88
2022/06/12 12:26:33;;;;;;;1999.90;999.90;;;34.20;19.20;;;;;;5017518;28;20056;-88
2022/06/12 12:29:02;;;;;;;1999.90;999.90;;;33.40;17.80;;;;;;5031398;28;20027;-87
2022/06/12 12:31:29;;;;;;;1236.15;342.10;;;34.00;20.30;;;;;;5032254;28;20046;-88
2022/06/12 12:33:59;;;;;;;1999.90;504.23;;;34.00;24.00;;;;;;5025102;28;20135;-87
2022/06/12 12:42:28;;;;;;;1082.72;508.65;;;33.90;22.20;;;;;;5016840;28;20396;-88
2022/06/12 12:44:55;;;;;;;1999.90;999.90;;;34.70;20.40;;;;;;5015606;28;20437;-88
2022/06/12 12:47:27;;;;;;;1999.90;999.90;;;34.40;19.50;;;;;;5016038;28;20026;-88
2022/06/12 12:50:07;;;;;;;1999.90;999.90;;;35.00;18.60;;;;;;5009994;28;20097;-88
2022/06/12 12:52:59;;;;;;;1999.90;999.90;;;36.50;19.70;;;;;;5041334;28;20511;-89
2022/06/12 12:55:31;;;;;;;1999.90;999.90;;;37.50;20.80;;;;;;5007476;28;20045;-88
2022/06/12 12:57:59;;;;;;;1999.90;999.90;;;37.60;16.50;;;;;;5012389;28;20030;-88